createdAt,value
2019-03-18T00:00:31.436Z,5.88
2019-03-18T00:01:31.505Z,5.80
2019-03-18T00:02:31.375Z,5.87
2019-03-18T00:03:31.362Z,5.84
2019-03-18T00:04:31.382Z,5.78
2019-03-18T00:05:31.337Z,5.78
2019-03-18T00:06:31.312Z,5.78
2019-03-18T00:07:31.384Z,5.75
2019-03-18T00:08:31.313Z,5.77
2019-03-18T00:09:31.327Z,5.78
2019-03-18T00:10:31.382Z,5.75
2019-03-18T00:11:31.254Z,5.84
2019-03-18T00:12:31.251Z,5.77
2019-03-18T00:13:31.271Z,5.75
2019-03-18T00:14:31.230Z,5.80
2019-03-18T00:15:31.204Z,5.80
2019-03-18T00:16:31.196Z,5.83
2019-03-18T00:17:31.301Z,5.83
2019-03-18T00:18:31.198Z,5.85
2019-03-18T00:19:31.179Z,5.81
2019-03-18T00:20:31.160Z,5.78
2019-03-18T00:21:31.177Z,5.80
2019-03-18T00:22:31.141Z,5.81
2019-03-18T00:23:31.229Z,5.77
2019-03-18T00:24:31.108Z,5.80
2019-03-18T00:25:31.099Z,5.75
2019-03-18T00:26:31.106Z,5.77
2019-03-18T00:27:31.071Z,5.78
2019-03-18T00:28:31.061Z,5.75
2019-03-18T00:29:31.068Z,5.74
2019-03-18T00:30:31.058Z,5.70
2019-03-18T00:31:31.047Z,5.78
2019-03-18T00:32:31.054Z,5.77
2019-03-18T00:33:31.049Z,5.78
2019-03-18T00:34:31.023Z,5.75
2019-03-18T00:35:30.981Z,5.75
2019-03-18T00:36:30.975Z,5.77
2019-03-18T00:37:30.974Z,5.78
2019-03-18T00:38:30.944Z,5.77
2019-03-18T00:39:30.953Z,5.73
2019-03-18T00:40:30.932Z,5.83
2019-03-18T00:41:30.935Z,5.73
2019-03-18T00:42:30.913Z,5.73
2019-03-18T00:43:30.916Z,5.66
2019-03-18T00:44:30.892Z,5.77
2019-03-18T00:45:30.896Z,5.66
2019-03-18T00:46:30.866Z,5.70
2019-03-18T00:47:30.860Z,5.73
2019-03-18T00:48:30.875Z,5.67
2019-03-18T00:49:30.852Z,5.75
2019-03-18T00:50:30.812Z,5.74
2019-03-18T00:51:30.806Z,5.65
2019-03-18T00:52:30.793Z,5.65
2019-03-18T00:53:30.808Z,5.74
2019-03-18T00:54:30.777Z,5.69
2019-03-18T00:55:30.794Z,5.63
2019-03-18T00:56:30.747Z,5.75
2019-03-18T00:57:30.752Z,5.74
2019-03-18T00:58:30.729Z,5.73
2019-03-18T00:59:30.744Z,5.70
2019-03-18T01:00:30.728Z,5.70
2019-03-18T01:01:30.689Z,5.73
2019-03-18T01:02:30.680Z,5.80
2019-03-18T01:03:30.674Z,5.77
2019-03-18T01:04:30.703Z,5.80
2019-03-18T01:05:30.662Z,5.81
2019-03-18T01:06:30.631Z,5.70
2019-03-18T01:07:30.628Z,5.70
2019-03-18T01:08:30.611Z,5.73
2019-03-18T01:09:30.793Z,5.73
2019-03-18T01:10:30.620Z,5.70
2019-03-18T01:11:30.638Z,5.74
2019-03-18T01:12:30.571Z,5.74
2019-03-18T01:13:30.559Z,5.77
2019-03-18T01:14:39.232Z,5.70
2019-03-18T01:15:38.253Z,5.69
2019-03-18T01:16:30.537Z,5.67
2019-03-18T01:17:30.525Z,5.69
2019-03-18T01:18:30.540Z,5.74
2019-03-18T01:19:30.499Z,5.66
2019-03-18T01:20:30.535Z,5.62
2019-03-18T01:21:30.491Z,5.67
2019-03-18T01:22:30.507Z,5.70
2019-03-18T01:23:30.472Z,5.63
2019-03-18T01:24:30.442Z,5.67
2019-03-18T01:25:30.420Z,5.65
2019-03-18T01:26:30.437Z,5.65
2019-03-18T01:27:30.430Z,5.73
2019-03-18T01:28:30.395Z,5.66
2019-03-18T01:29:30.417Z,5.66
2019-03-18T01:30:30.374Z,5.69
2019-03-18T01:31:30.369Z,5.63
2019-03-18T01:32:30.347Z,5.65
2019-03-18T01:33:30.343Z,5.58
2019-03-18T01:34:30.344Z,5.62
2019-03-18T01:35:30.354Z,5.66
2019-03-18T01:36:30.306Z,5.66
2019-03-18T01:37:30.286Z,5.65
2019-03-18T01:38:30.282Z,5.52
2019-03-18T01:39:30.284Z,5.52
2019-03-18T01:40:30.248Z,5.52
2019-03-18T01:41:30.239Z,5.58
2019-03-18T01:42:30.255Z,5.58
2019-03-18T01:43:30.223Z,5.59
2019-03-18T01:44:30.348Z,5.51
2019-03-18T01:45:40.119Z,5.49
2019-03-18T01:46:31.183Z,5.48
2019-03-18T01:47:30.170Z,5.37
2019-03-18T01:48:30.747Z,5.44
2019-03-18T01:49:30.147Z,5.37
2019-03-18T01:50:30.170Z,5.30
2019-03-18T01:51:30.159Z,5.26
2019-03-18T01:52:30.119Z,5.23
2019-03-18T01:53:37.675Z,5.27
2019-03-18T01:56:55.899Z,5.12
2019-03-18T01:59:05.243Z,5.14
2019-03-18T02:00:05.249Z,5.01
2019-03-18T02:01:12.758Z,5.01
2019-03-18T02:02:05.246Z,5.05
2019-03-18T02:03:05.254Z,5.01
2019-03-18T02:04:05.178Z,5.05
2019-03-18T02:05:05.219Z,4.96
2019-03-18T02:06:05.162Z,4.97
2019-03-18T02:07:05.182Z,4.96
2019-03-18T02:08:05.151Z,4.94
2019-03-18T02:09:05.121Z,4.91
2019-03-18T02:10:05.139Z,4.86
2019-03-18T02:11:05.112Z,4.88
2019-03-18T02:12:05.117Z,4.91
2019-03-18T02:13:05.080Z,4.83
2019-03-18T02:14:05.070Z,4.87
2019-03-18T02:15:05.065Z,4.84
2019-03-18T02:16:05.089Z,4.83
2019-03-18T02:17:05.042Z,4.86
2019-03-18T02:18:05.051Z,4.86
2019-03-18T02:19:05.060Z,4.75
2019-03-18T02:20:05.071Z,4.84
2019-03-18T02:21:04.998Z,4.80
2019-03-18T02:22:04.987Z,4.84
2019-03-18T02:23:04.972Z,4.77
2019-03-18T02:24:04.962Z,4.80
2019-03-18T02:25:04.943Z,4.77
2019-03-18T02:26:04.942Z,4.71
2019-03-18T02:27:04.941Z,4.72
2019-03-18T02:28:04.931Z,4.75
2019-03-18T02:29:04.921Z,4.68
2019-03-18T02:30:04.886Z,4.72
2019-03-18T02:31:13.915Z,4.72
2019-03-18T02:32:04.872Z,4.65
2019-03-18T02:33:04.878Z,4.67
2019-03-18T02:34:04.907Z,4.69
2019-03-18T02:35:04.869Z,4.62
2019-03-18T02:36:04.869Z,4.72
2019-03-18T02:37:04.813Z,4.71
2019-03-18T02:38:04.806Z,4.65
2019-03-18T02:39:04.800Z,4.62
2019-03-18T02:40:04.798Z,4.65
2019-03-18T02:41:04.814Z,4.59
2019-03-18T02:42:04.767Z,4.67
2019-03-18T02:43:04.781Z,4.62
2019-03-18T02:44:04.740Z,4.64
2019-03-18T02:45:04.724Z,4.54
2019-03-18T02:46:10.353Z,4.64
2019-03-18T02:47:05.732Z,4.61
2019-03-18T02:48:04.736Z,4.59
2019-03-18T02:49:04.715Z,4.54
2019-03-18T02:50:04.667Z,4.64
2019-03-18T02:51:04.673Z,4.59
2019-03-18T02:52:04.657Z,4.53
2019-03-18T02:53:04.646Z,4.64
2019-03-18T02:54:04.615Z,4.61
2019-03-18T02:55:04.627Z,4.56
2019-03-18T02:56:04.611Z,4.64
2019-03-18T02:57:04.604Z,4.57
2019-03-18T02:58:04.573Z,4.53
2019-03-18T02:59:04.563Z,4.54
2019-03-18T03:00:04.546Z,4.61
2019-03-18T03:01:04.559Z,4.62
2019-03-18T03:02:04.545Z,4.56
2019-03-18T03:03:04.553Z,4.64
2019-03-18T03:04:04.509Z,4.54
2019-03-18T03:05:04.496Z,4.53
2019-03-18T03:06:04.487Z,4.64
2019-03-18T03:07:04.488Z,4.61
2019-03-18T03:08:04.516Z,4.64
2019-03-18T03:09:04.459Z,4.53
2019-03-18T03:10:04.451Z,4.64
2019-03-18T03:11:04.455Z,4.64
2019-03-18T03:12:04.421Z,4.57
2019-03-18T03:13:04.415Z,4.62
2019-03-18T03:14:04.431Z,4.62
2019-03-18T03:15:04.651Z,4.68
2019-03-18T03:16:04.393Z,4.65
2019-03-18T03:17:04.387Z,4.65
2019-03-18T03:18:04.346Z,4.65
2019-03-18T03:19:04.349Z,4.72
2019-03-18T03:20:04.374Z,4.64
2019-03-18T03:21:04.376Z,4.65
2019-03-18T03:22:04.304Z,4.65
2019-03-18T03:23:04.290Z,4.79
2019-03-18T03:24:04.302Z,4.65
2019-03-18T03:25:04.293Z,4.59
2019-03-18T03:26:04.296Z,4.71
2019-03-18T03:27:04.248Z,4.71
2019-03-18T03:28:04.240Z,4.67
2019-03-18T03:29:04.224Z,4.72
2019-03-18T03:30:04.237Z,4.79
2019-03-18T03:31:04.331Z,4.68
2019-03-18T03:32:04.188Z,4.74
2019-03-18T03:33:04.278Z,4.64
2019-03-18T03:34:04.178Z,4.69
2019-03-18T03:35:04.173Z,4.71
2019-03-18T03:36:04.173Z,4.62
2019-03-18T03:37:04.173Z,4.64
2019-03-18T03:38:11.373Z,4.64
2019-03-18T03:39:04.119Z,4.72
2019-03-18T03:40:04.123Z,4.69
2019-03-18T03:41:04.115Z,4.74
2019-03-18T03:42:04.099Z,4.77
2019-03-18T03:43:04.113Z,4.83
2019-03-18T03:44:04.059Z,4.74
2019-03-18T03:45:04.063Z,4.77
2019-03-18T03:46:04.059Z,4.83
2019-03-18T03:47:04.032Z,4.83
2019-03-18T03:48:04.066Z,4.83
2019-03-18T03:49:03.997Z,4.86
2019-03-18T03:50:04.001Z,4.87
2019-03-18T03:51:03.988Z,4.83
2019-03-18T03:52:04.019Z,4.84
2019-03-18T03:53:03.969Z,4.84
2019-03-18T03:54:03.985Z,4.86
2019-03-18T03:55:03.976Z,4.84
2019-03-18T03:56:03.984Z,4.87
2019-03-18T03:57:03.910Z,4.87
2019-03-18T03:58:03.924Z,4.86
2019-03-18T03:59:03.910Z,4.88
2019-03-18T04:00:03.880Z,4.87
2019-03-18T04:01:03.913Z,4.91
2019-03-18T04:02:03.902Z,4.86
2019-03-18T04:03:03.852Z,4.87
2019-03-18T04:04:03.835Z,4.86
2019-03-18T04:05:03.841Z,4.93
2019-03-18T04:06:03.847Z,4.84
2019-03-18T04:07:03.854Z,4.90
2019-03-18T04:08:03.811Z,4.86
2019-03-18T04:09:03.819Z,4.86
2019-03-18T04:10:03.789Z,4.87
2019-03-18T04:11:08.000Z,4.86
2019-03-18T04:12:03.754Z,4.90
2019-03-18T04:13:03.735Z,4.84
2019-03-18T04:14:03.720Z,4.91
2019-03-18T04:15:03.728Z,4.86
2019-03-18T04:16:03.728Z,4.83
2019-03-18T04:17:12.279Z,4.84
2019-03-18T04:18:12.262Z,4.83
2019-03-18T04:21:25.344Z,4.93
2019-03-18T04:22:25.308Z,4.84
2019-03-18T04:23:33.902Z,4.90
2019-03-18T04:24:25.415Z,4.87
2019-03-18T04:25:25.331Z,4.84
2019-03-18T04:26:25.278Z,4.88
2019-03-18T04:27:25.261Z,4.87
2019-03-18T04:28:25.238Z,4.88
2019-03-18T04:29:25.292Z,4.91
2019-03-18T04:30:25.260Z,4.86
2019-03-18T04:31:25.321Z,4.93
2019-03-18T04:32:25.293Z,4.91
2019-03-18T04:33:25.182Z,4.93
2019-03-18T04:34:25.201Z,4.97
2019-03-18T04:35:25.471Z,4.91
2019-03-18T04:36:25.156Z,4.91
2019-03-18T04:37:25.156Z,4.96
2019-03-18T04:38:25.125Z,4.94
2019-03-18T04:39:25.115Z,4.97
2019-03-18T04:40:25.117Z,4.94
2019-03-18T04:41:25.130Z,4.91
2019-03-18T04:42:25.091Z,5.01
2019-03-18T04:43:25.103Z,5.09
2019-03-18T04:44:25.056Z,5.01
2019-03-18T04:45:25.061Z,4.97
2019-03-18T04:46:25.035Z,5.09
2019-03-18T04:47:25.040Z,5.14
2019-03-18T04:48:25.038Z,5.12
2019-03-18T04:49:25.048Z,5.09
2019-03-18T04:50:25.000Z,5.11
2019-03-18T04:51:25.025Z,5.14
2019-03-18T04:52:24.985Z,5.12
2019-03-18T04:53:24.962Z,5.15
2019-03-18T04:54:24.958Z,5.19
2019-03-18T04:55:24.972Z,5.24
2019-03-18T04:56:24.933Z,5.22
2019-03-18T04:57:24.935Z,5.17
2019-03-18T04:58:24.949Z,5.17
2019-03-18T04:59:24.893Z,5.23
2019-03-18T05:00:24.910Z,5.19
2019-03-18T05:01:25.130Z,5.32
2019-03-18T05:02:24.915Z,5.26
2019-03-18T05:03:24.853Z,5.26
2019-03-18T05:04:24.844Z,5.26
2019-03-18T05:05:24.861Z,5.30
2019-03-18T05:06:24.854Z,5.40
2019-03-18T05:07:24.823Z,5.32
2019-03-18T05:08:24.798Z,5.26
2019-03-18T05:09:24.781Z,5.35
2019-03-18T05:10:24.790Z,5.30
2019-03-18T05:11:24.769Z,5.38
2019-03-18T05:12:24.749Z,5.37
2019-03-18T05:13:26.568Z,5.40
2019-03-18T05:14:24.721Z,5.29
2019-03-18T05:15:24.749Z,5.32
2019-03-18T05:16:24.710Z,5.30
2019-03-18T05:17:26.760Z,5.40
2019-03-18T05:18:24.689Z,5.42
2019-03-18T05:19:24.722Z,5.38
2019-03-18T05:20:24.691Z,5.49
2019-03-18T05:21:24.698Z,5.35
2019-03-18T05:22:24.663Z,5.38
2019-03-18T05:23:24.675Z,5.42
2019-03-18T05:24:24.617Z,5.40
2019-03-18T05:25:24.637Z,5.47
2019-03-18T05:26:24.656Z,5.42
2019-03-18T05:27:24.745Z,5.37
2019-03-18T05:28:24.575Z,5.48
2019-03-18T05:29:24.709Z,5.45
2019-03-18T05:30:24.565Z,5.44
2019-03-18T05:31:24.731Z,5.49
2019-03-18T05:32:24.676Z,5.48
2019-03-18T05:33:24.542Z,5.47
2019-03-18T05:34:24.523Z,5.51
2019-03-18T05:35:24.671Z,5.51
2019-03-18T05:36:24.482Z,5.58
2019-03-18T05:37:25.417Z,5.58
2019-03-18T05:38:25.455Z,5.62
2019-03-18T05:39:24.463Z,5.51
2019-03-18T05:40:24.505Z,5.48
2019-03-18T05:41:24.592Z,5.48
2019-03-18T05:42:24.728Z,5.51
2019-03-18T05:43:24.427Z,5.52
2019-03-18T05:44:24.399Z,5.55
2019-03-18T05:45:24.450Z,5.52
2019-03-18T05:46:24.438Z,5.58
2019-03-18T05:47:24.660Z,5.59
2019-03-18T05:48:24.357Z,5.62
2019-03-18T05:49:24.421Z,5.60
2019-03-18T05:50:24.340Z,5.63
2019-03-18T05:51:25.089Z,5.62
2019-03-18T05:52:25.909Z,5.58
2019-03-18T05:53:24.816Z,5.56
2019-03-18T05:54:24.885Z,5.63
2019-03-18T05:55:26.002Z,5.60
2019-03-18T05:56:24.305Z,5.59
2019-03-18T05:57:26.060Z,5.55
2019-03-18T05:58:24.239Z,5.63
2019-03-18T05:59:24.241Z,5.58
2019-03-18T06:00:24.952Z,5.66
2019-03-18T06:01:24.247Z,5.60
2019-03-18T06:02:24.258Z,5.66
2019-03-18T06:03:24.229Z,5.62
2019-03-18T06:04:24.176Z,5.56
2019-03-18T06:05:24.254Z,5.62
2019-03-18T06:06:24.175Z,5.62
2019-03-18T06:07:24.193Z,5.66
2019-03-18T06:08:24.240Z,5.62
2019-03-18T06:09:24.179Z,5.67
2019-03-18T06:10:24.417Z,5.60
2019-03-18T06:11:24.250Z,5.65
2019-03-18T06:12:24.289Z,5.59
2019-03-18T06:13:27.049Z,5.69
2019-03-18T06:14:24.105Z,5.63
2019-03-18T06:15:24.156Z,5.69
2019-03-18T06:16:24.206Z,5.73
2019-03-18T06:17:24.052Z,5.70
2019-03-18T06:18:24.045Z,5.70
2019-03-18T06:19:25.287Z,5.67
2019-03-18T06:20:24.729Z,5.63
2019-03-18T06:21:24.080Z,5.66
2019-03-18T06:22:24.203Z,5.74
2019-03-18T06:23:23.996Z,5.70
2019-03-18T06:24:23.967Z,5.63
2019-03-18T06:25:36.095Z,5.74
2019-03-18T06:26:31.501Z,5.67
2019-03-18T06:27:23.928Z,5.63
2019-03-18T06:28:24.514Z,5.75
2019-03-18T06:29:24.209Z,5.77
2019-03-18T06:30:23.950Z,5.78
2019-03-18T06:31:24.021Z,5.74
2019-03-18T06:32:23.929Z,5.84
2019-03-18T06:33:23.923Z,5.87
2019-03-18T06:34:24.589Z,5.78
2019-03-18T06:35:24.049Z,5.80
2019-03-18T06:36:26.522Z,5.81
2019-03-18T06:37:24.268Z,5.85
2019-03-18T06:38:24.072Z,5.92
2019-03-18T06:39:23.966Z,5.98
2019-03-18T06:40:23.936Z,5.85
2019-03-18T06:41:24.092Z,5.93
2019-03-18T06:42:24.017Z,5.93
2019-03-18T06:43:23.883Z,5.96
2019-03-18T06:44:23.981Z,5.87
2019-03-18T06:45:24.123Z,6.01
2019-03-18T06:46:27.474Z,6.08
2019-03-18T06:47:32.708Z,6.05
2019-03-18T06:48:23.740Z,6.05
2019-03-18T06:49:23.765Z,6.03
2019-03-18T06:50:23.771Z,6.11
2019-03-18T06:51:23.667Z,6.08
2019-03-18T06:52:23.676Z,6.03
2019-03-18T06:53:23.643Z,6.03
2019-03-18T06:54:23.644Z,6.20
2019-03-18T06:55:23.606Z,6.17
2019-03-18T06:56:23.680Z,6.20
2019-03-18T06:57:23.587Z,6.14
2019-03-18T06:58:23.600Z,6.02
2019-03-18T06:59:23.579Z,6.19
2019-03-18T07:00:23.581Z,6.14
2019-03-18T07:01:23.538Z,6.19
2019-03-18T07:02:23.540Z,6.06
2019-03-18T07:03:23.524Z,6.19
2019-03-18T07:04:23.587Z,6.25
2019-03-18T07:05:23.521Z,6.20
2019-03-18T07:06:23.548Z,6.21
2019-03-18T07:07:23.556Z,6.24
2019-03-18T07:08:23.463Z,6.28
2019-03-18T07:09:23.459Z,6.33
2019-03-18T07:10:23.478Z,6.27
2019-03-18T07:11:23.482Z,6.33
2019-03-18T07:12:23.460Z,6.33
2019-03-18T07:13:23.479Z,6.32
2019-03-18T07:14:23.399Z,6.27
2019-03-18T07:15:23.388Z,6.25
2019-03-18T07:16:23.427Z,6.35
2019-03-18T07:17:23.860Z,6.25
2019-03-18T07:18:23.421Z,6.35
2019-03-18T07:19:24.059Z,6.40
2019-03-18T07:20:23.462Z,6.33
2019-03-18T07:22:39.699Z,6.46
2019-03-18T07:23:39.614Z,6.42
2019-03-18T07:24:39.599Z,6.39
2019-03-18T07:25:39.641Z,6.42
2019-03-18T07:26:40.037Z,6.42
2019-03-18T07:27:39.585Z,6.50
2019-03-18T07:28:39.554Z,6.55
2019-03-18T07:29:39.544Z,6.60
2019-03-18T07:30:39.611Z,6.58
2019-03-18T07:31:39.540Z,6.63
2019-03-18T07:32:39.495Z,6.61
2019-03-18T07:33:39.543Z,6.63
2019-03-18T07:34:39.519Z,6.64
2019-03-18T07:35:39.502Z,6.58
2019-03-18T07:36:39.518Z,6.64
2019-03-18T07:37:39.437Z,6.69
2019-03-18T07:38:39.430Z,6.61
2019-03-18T07:39:39.435Z,6.71
2019-03-18T07:40:39.429Z,6.65
2019-03-18T07:41:39.437Z,6.76
2019-03-18T07:42:39.744Z,6.73
2019-03-18T07:43:39.470Z,6.82
2019-03-18T07:44:39.480Z,6.78
2019-03-18T07:45:39.383Z,6.87
2019-03-18T07:46:39.378Z,6.78
2019-03-18T07:47:48.504Z,6.83
2019-03-18T07:48:54.026Z,6.86
2019-03-18T07:49:47.243Z,6.90
2019-03-18T07:51:56.631Z,6.86
2019-03-18T07:53:09.319Z,6.87
2019-03-18T07:54:04.112Z,6.89
2019-03-18T07:54:55.758Z,6.83
2019-03-18T07:55:55.668Z,6.97
2019-03-18T07:58:06.103Z,7.00
2019-03-18T07:59:06.135Z,6.96
2019-03-18T08:00:05.911Z,7.01
2019-03-18T08:01:17.151Z,6.99
2019-03-18T08:02:17.267Z,6.96
2019-03-18T08:03:05.924Z,6.96
2019-03-18T08:04:06.169Z,7.09
2019-03-18T08:05:07.992Z,6.96
2019-03-18T08:06:05.967Z,7.00
2019-03-18T08:07:06.790Z,7.04
2019-03-18T08:08:05.830Z,7.14
2019-03-18T08:09:05.838Z,6.97
2019-03-18T08:10:05.848Z,7.09
2019-03-18T08:11:05.799Z,7.04
2019-03-18T08:12:05.772Z,7.08
2019-03-18T08:13:05.768Z,7.14
2019-03-18T08:14:05.790Z,7.12
2019-03-18T08:15:07.458Z,7.14
2019-03-18T08:16:05.808Z,7.21
2019-03-18T08:17:05.816Z,7.15
2019-03-18T08:18:05.732Z,7.24
2019-03-18T08:19:05.710Z,7.23
2019-03-18T08:20:05.703Z,7.21
2019-03-18T08:21:05.720Z,7.23
2019-03-18T08:22:05.729Z,7.33
2019-03-18T08:23:05.662Z,7.24
2019-03-18T08:24:05.670Z,7.32
2019-03-18T08:25:05.651Z,7.42
2019-03-18T08:26:05.672Z,7.36
2019-03-18T08:27:06.611Z,7.36
2019-03-18T08:28:05.733Z,7.36
2019-03-18T08:29:05.609Z,7.48
2019-03-18T08:30:05.632Z,7.54
2019-03-18T08:31:05.583Z,7.50
2019-03-18T08:32:05.594Z,7.54
2019-03-18T08:33:05.730Z,7.50
2019-03-18T08:34:07.595Z,7.51
2019-03-18T08:35:05.559Z,7.47
2019-03-18T08:36:05.547Z,7.47
2019-03-18T08:37:05.594Z,7.47
2019-03-18T08:38:05.600Z,7.51
2019-03-18T08:39:05.487Z,7.50
2019-03-18T08:40:05.537Z,7.50
2019-03-18T08:41:05.491Z,7.60
2019-03-18T08:42:05.545Z,7.63
2019-03-18T08:43:05.463Z,7.58
2019-03-18T08:44:05.492Z,7.57
2019-03-18T08:45:05.508Z,7.57
2019-03-18T08:46:05.450Z,7.66
2019-03-18T08:47:05.431Z,7.62
2019-03-18T08:48:05.510Z,7.67
2019-03-18T08:49:05.577Z,7.70
2019-03-18T08:50:05.365Z,7.62
2019-03-18T08:51:05.401Z,7.63
2019-03-18T08:52:05.362Z,7.67
2019-03-18T08:53:05.323Z,7.62
2019-03-18T08:54:05.321Z,7.66
2019-03-18T08:55:05.305Z,7.66
2019-03-18T08:56:05.358Z,7.63
2019-03-18T08:57:05.262Z,7.69
2019-03-18T08:58:05.272Z,7.67
2019-03-18T08:59:05.267Z,7.71
2019-03-18T09:00:05.505Z,7.69
2019-03-18T09:01:05.303Z,7.70
2019-03-18T09:02:05.325Z,7.67
2019-03-18T09:03:05.300Z,7.62
2019-03-18T09:04:05.229Z,7.60
2019-03-18T09:05:05.225Z,7.63
2019-03-18T09:06:05.249Z,7.55
2019-03-18T09:07:05.158Z,7.67
2019-03-18T09:08:05.196Z,7.52
2019-03-18T09:09:05.268Z,7.57
2019-03-18T09:10:05.178Z,7.54
2019-03-18T09:11:05.105Z,7.50
2019-03-18T09:12:05.099Z,7.50
2019-03-18T09:13:05.163Z,7.55
2019-03-18T09:14:05.090Z,7.69
2019-03-18T09:15:05.070Z,7.51
2019-03-18T09:16:05.074Z,7.62
2019-03-18T09:17:05.089Z,7.66
2019-03-18T09:18:05.572Z,7.57
2019-03-18T09:19:09.111Z,7.55
2019-03-18T09:20:05.032Z,7.52
2019-03-18T09:21:05.014Z,7.69
2019-03-18T09:22:05.065Z,7.58
2019-03-18T09:23:04.971Z,7.67
2019-03-18T09:24:05.124Z,7.63
2019-03-18T09:25:04.954Z,7.57
2019-03-18T09:26:04.971Z,7.57
2019-03-18T09:27:04.939Z,7.63
2019-03-18T09:28:04.946Z,7.73
2019-03-18T09:29:04.895Z,7.73
2019-03-18T09:30:04.905Z,7.82
2019-03-18T09:31:04.898Z,7.84
2019-03-18T09:32:04.920Z,7.94
2019-03-18T09:33:04.853Z,7.86
2019-03-18T09:34:04.892Z,7.94
2019-03-18T09:35:04.828Z,7.92
2019-03-18T09:36:04.813Z,7.89
2019-03-18T09:37:04.824Z,7.84
2019-03-18T09:38:04.786Z,7.95
2019-03-18T09:39:04.887Z,8.06
2019-03-18T09:40:04.821Z,8.10
2019-03-18T09:41:04.752Z,8.03
2019-03-18T09:42:04.743Z,8.25
2019-03-18T09:43:04.738Z,8.07
2019-03-18T09:44:04.725Z,8.17
2019-03-18T09:45:04.815Z,8.14
2019-03-18T09:46:05.085Z,8.04
2019-03-18T09:47:04.827Z,8.10
2019-03-18T09:48:04.713Z,8.09
2019-03-18T09:49:04.774Z,8.13
2019-03-18T09:50:04.691Z,8.10
2019-03-18T09:51:04.646Z,8.06
2019-03-18T09:52:04.827Z,8.00
2019-03-18T09:53:04.662Z,8.06
2019-03-18T09:54:04.745Z,8.10
2019-03-18T09:55:04.599Z,8.03
2019-03-18T09:56:04.593Z,8.12
2019-03-18T09:57:04.637Z,7.95
2019-03-18T09:58:04.686Z,7.92
2019-03-18T09:59:04.598Z,8.02
2019-03-18T10:00:04.587Z,8.04
2019-03-18T10:01:04.585Z,8.09
2019-03-18T10:02:04.948Z,8.00
2019-03-18T10:03:05.469Z,7.99
2019-03-18T10:04:05.238Z,7.99
2019-03-18T10:05:04.495Z,7.94
2019-03-18T10:06:04.468Z,7.95
2019-03-18T10:07:04.496Z,8.07
2019-03-18T10:08:04.454Z,7.92
2019-03-18T10:09:04.443Z,7.96
2019-03-18T10:10:04.446Z,8.02
2019-03-18T10:11:04.506Z,8.03
2019-03-18T10:12:04.405Z,8.12
2019-03-18T10:13:04.465Z,8.14
2019-03-18T10:14:04.455Z,8.17
2019-03-18T10:15:04.496Z,8.22
2019-03-18T10:16:05.060Z,8.17
2019-03-18T10:17:09.414Z,8.18
2019-03-18T10:18:05.466Z,8.17
2019-03-18T10:19:04.332Z,8.18
2019-03-18T10:20:08.121Z,8.18
2019-03-18T10:21:04.439Z,8.10
2019-03-18T10:22:04.313Z,8.06
2019-03-18T10:23:04.325Z,8.07
2019-03-18T10:24:04.326Z,8.10
2019-03-18T10:25:04.578Z,8.09
2019-03-18T10:26:04.273Z,8.13
2019-03-18T10:27:04.291Z,8.13
2019-03-18T10:28:05.483Z,8.24
2019-03-18T10:29:04.864Z,8.20
2019-03-18T10:30:04.270Z,8.25
2019-03-18T10:31:04.268Z,8.22
2019-03-18T10:32:04.280Z,8.22
2019-03-18T10:33:04.281Z,8.27
2019-03-18T10:34:04.190Z,8.36
2019-03-18T10:35:04.191Z,8.39
2019-03-18T10:36:04.189Z,8.52
2019-03-18T10:37:05.119Z,8.47
2019-03-18T10:38:04.209Z,8.67
2019-03-18T10:39:04.118Z,8.68
2019-03-18T10:40:04.131Z,8.68
2019-03-18T10:41:04.070Z,8.83
2019-03-18T10:42:04.132Z,8.75
2019-03-18T10:43:04.073Z,8.85
2019-03-18T10:44:04.046Z,9.00
2019-03-18T10:45:04.062Z,8.91
2019-03-18T10:46:04.077Z,8.94
2019-03-18T10:47:04.020Z,8.93
2019-03-18T10:48:04.013Z,8.97
2019-03-18T10:49:03.974Z,9.08
2019-03-18T10:50:03.985Z,9.06
2019-03-18T10:51:03.995Z,9.12
2019-03-18T10:52:03.980Z,9.15
2019-03-18T10:53:03.986Z,9.06
2019-03-18T10:54:04.017Z,9.10
2019-03-18T10:55:03.959Z,9.10
2019-03-18T10:56:08.123Z,9.06
2019-03-18T10:57:03.922Z,9.06
2019-03-18T10:58:03.895Z,9.08
2019-03-18T10:59:03.879Z,9.10
2019-03-18T11:00:03.950Z,9.06
2019-03-18T11:01:03.856Z,9.08
2019-03-18T11:02:03.854Z,9.03
2019-03-18T11:03:03.813Z,8.98
2019-03-18T11:04:03.810Z,8.98
2019-03-18T11:05:03.821Z,9.01
2019-03-18T11:06:03.835Z,8.91
2019-03-18T11:07:03.783Z,8.78
2019-03-18T11:08:03.758Z,8.58
2019-03-18T11:09:03.777Z,8.50
2019-03-18T11:10:03.786Z,8.40
2019-03-18T11:11:03.756Z,8.36
2019-03-18T11:12:03.727Z,8.24
2019-03-18T11:13:03.719Z,8.24
2019-03-18T11:14:03.745Z,8.22
2019-03-18T11:15:03.702Z,8.24
2019-03-18T11:16:04.868Z,8.18
2019-03-18T11:17:04.638Z,8.07
2019-03-18T11:18:04.682Z,7.88
2019-03-18T11:19:03.686Z,7.88
2019-03-18T11:20:03.667Z,7.79
2019-03-18T11:21:03.669Z,7.81
2019-03-18T11:22:03.621Z,7.67
2019-03-18T11:23:03.626Z,7.74
2019-03-18T11:24:03.599Z,7.69
2019-03-18T11:25:03.606Z,7.70
2019-03-18T11:26:03.551Z,7.77
2019-03-18T11:27:03.610Z,7.79
2019-03-18T11:28:03.527Z,7.70
2019-03-18T11:29:05.744Z,7.76
2019-03-18T11:30:03.548Z,7.84
2019-03-18T11:31:03.603Z,7.82
2019-03-18T11:32:03.564Z,7.85
2019-03-18T11:33:03.552Z,7.92
2019-03-18T11:34:03.503Z,8.10
2019-03-18T11:35:03.469Z,8.13
2019-03-18T11:36:03.471Z,8.24
2019-03-18T11:37:03.480Z,8.31
2019-03-18T11:38:03.410Z,8.37
2019-03-18T11:39:03.518Z,8.40
2019-03-18T11:40:04.051Z,8.49
2019-03-18T11:41:06.415Z,8.67
2019-03-18T11:42:11.803Z,8.71
2019-03-18T11:43:03.744Z,8.73
2019-03-18T11:44:03.372Z,8.80
2019-03-18T11:45:03.351Z,8.85
2019-03-18T11:46:03.345Z,8.98
2019-03-18T11:47:03.323Z,8.96
2019-03-18T11:48:03.297Z,8.93
2019-03-18T11:49:03.375Z,9.06
2019-03-18T11:50:10.806Z,9.04
2019-03-18T11:51:04.303Z,9.10
2019-03-18T11:52:03.283Z,9.17
2019-03-18T11:53:13.769Z,9.08
2019-03-18T11:54:04.239Z,9.20
2019-03-18T11:55:03.235Z,9.31
2019-03-18T11:56:03.271Z,9.31
2019-03-18T11:57:03.228Z,9.26
2019-03-18T11:58:03.262Z,9.30
2019-03-18T11:59:03.236Z,9.26
2019-03-18T12:00:03.177Z,9.17
2019-03-18T12:01:03.192Z,9.20
2019-03-18T12:02:03.148Z,9.26
2019-03-18T12:03:03.170Z,9.20
2019-03-18T12:04:03.172Z,9.30
2019-03-18T12:05:03.111Z,9.23
2019-03-18T12:06:03.147Z,9.30
2019-03-18T12:07:03.091Z,9.32
2019-03-18T12:08:03.089Z,9.27
2019-03-18T12:09:03.073Z,9.41
2019-03-18T12:10:03.109Z,9.38
2019-03-18T12:11:05.563Z,9.37
2019-03-18T12:12:05.075Z,9.44
2019-03-18T12:13:08.418Z,9.55
2019-03-18T12:14:03.042Z,9.56
2019-03-18T12:15:03.057Z,9.58
2019-03-18T12:16:03.032Z,9.65
2019-03-18T12:17:03.038Z,9.65
2019-03-18T12:18:03.103Z,9.60
2019-03-18T12:19:03.561Z,9.73
2019-03-18T12:20:03.174Z,9.63
2019-03-18T12:21:03.534Z,9.70
2019-03-18T12:22:04.178Z,9.73
2019-03-18T12:23:04.159Z,9.85
2019-03-18T12:24:02.950Z,9.78
2019-03-18T12:25:02.904Z,9.75
2019-03-18T12:26:02.931Z,9.92
2019-03-18T12:27:02.989Z,10.02
2019-03-18T12:28:05.205Z,9.86
2019-03-18T12:29:02.860Z,9.95
2019-03-18T12:30:02.846Z,9.91
2019-03-18T12:31:02.843Z,9.89
2019-03-18T12:32:02.883Z,9.86
2019-03-18T12:33:02.913Z,9.78
2019-03-18T12:34:02.874Z,9.83
2019-03-18T12:35:02.801Z,9.78
2019-03-18T12:36:03.119Z,9.73
2019-03-18T12:37:02.853Z,9.65
2019-03-18T12:38:02.757Z,9.67
2019-03-18T12:39:02.746Z,9.56
2019-03-18T12:40:02.796Z,9.59
2019-03-18T12:41:02.723Z,9.41
2019-03-18T12:42:02.732Z,9.32
2019-03-18T12:43:02.735Z,9.17
2019-03-18T12:44:02.715Z,8.83
2019-03-18T12:45:02.651Z,8.65
2019-03-18T12:46:02.657Z,8.52
2019-03-18T12:47:02.640Z,8.45
2019-03-18T12:48:02.653Z,8.46
2019-03-18T12:49:02.626Z,8.39
2019-03-18T12:50:02.711Z,8.29
2019-03-18T12:51:02.585Z,8.21
2019-03-18T12:52:02.579Z,8.18
2019-03-18T12:53:02.614Z,8.10
2019-03-18T12:54:02.549Z,8.02
2019-03-18T12:55:02.558Z,8.02
2019-03-18T12:56:02.553Z,7.92
2019-03-18T12:57:02.522Z,7.95
2019-03-18T12:58:02.510Z,7.88
2019-03-18T12:59:02.822Z,7.88
2019-03-18T13:00:02.497Z,7.91
2019-03-18T13:01:12.099Z,7.85
2019-03-18T13:02:03.497Z,7.85
2019-03-18T13:03:02.454Z,7.95
2019-03-18T13:04:02.451Z,7.92
2019-03-18T13:05:02.430Z,7.96
2019-03-18T13:06:02.438Z,7.96
2019-03-18T13:07:02.482Z,8.03
2019-03-18T13:08:02.546Z,8.06
2019-03-18T13:09:02.381Z,8.06
2019-03-18T13:10:02.407Z,8.04
2019-03-18T13:11:02.362Z,8.06
2019-03-18T13:12:02.404Z,8.12
2019-03-18T13:13:02.331Z,8.18
2019-03-18T13:14:02.381Z,8.13
2019-03-18T13:15:02.318Z,8.20
2019-03-18T13:16:02.350Z,8.24
2019-03-18T13:17:02.341Z,8.27
2019-03-18T13:18:02.272Z,8.36
2019-03-18T13:19:02.270Z,8.45
2019-03-18T13:20:02.316Z,8.47
2019-03-18T13:21:07.835Z,8.47
2019-03-18T13:22:03.258Z,8.55
2019-03-18T13:23:02.335Z,8.61
2019-03-18T13:24:02.414Z,8.57
2019-03-18T13:25:02.202Z,8.64
2019-03-18T13:26:02.222Z,8.70
2019-03-18T13:27:02.174Z,8.71
2019-03-18T13:28:02.165Z,8.68